createdAt,value
2022-10-22T00:00:51.409Z,67.5
2022-10-22T00:02:35.217Z,67.5
2022-10-22T00:04:19.003Z,67.5
2022-10-22T00:06:02.670Z,67.5
2022-10-22T00:07:46.337Z,67.5
2022-10-22T00:09:29.887Z,67.5
2022-10-22T00:11:13.745Z,67.5
2022-10-22T00:12:57.301Z,67.5
2022-10-22T00:14:41.174Z,67.5
2022-10-22T00:16:24.811Z,67.5
2022-10-22T00:18:08.564Z,67.5
2022-10-22T00:19:52.101Z,67.5
2022-10-22T00:21:35.928Z,67.5
2022-10-22T00:23:19.666Z,67.5
2022-10-22T00:25:03.243Z,67.4
2022-10-22T00:26:47.066Z,67.5
2022-10-22T00:28:30.606Z,67.4
2022-10-22T00:30:14.464Z,67.5
2022-10-22T00:31:58.173Z,67.5
2022-10-22T00:33:41.919Z,67.5
2022-10-22T00:35:25.502Z,67.5
2022-10-22T00:37:09.269Z,67.4
2022-10-22T00:38:52.990Z,67.4
2022-10-22T00:40:36.762Z,67.4
2022-10-22T00:42:20.385Z,67.5
2022-10-22T00:44:04.096Z,67.5
2022-10-22T00:45:47.793Z,67.5
2022-10-22T00:47:31.351Z,67.4
2022-10-22T00:49:15.192Z,67.4
2022-10-22T00:50:58.897Z,67.4
2022-10-22T00:52:42.609Z,67.4
2022-10-22T00:54:26.299Z,67.4
2022-10-22T00:56:09.853Z,67.4
2022-10-22T00:57:53.701Z,67.4
2022-10-22T00:59:37.392Z,67.4
2022-10-22T01:01:21.060Z,67.4
2022-10-22T01:03:04.849Z,67.4
2022-10-22T01:04:48.537Z,67.4
2022-10-22T01:06:32.215Z,67.4
2022-10-22T01:08:15.911Z,67.4
2022-10-22T01:09:59.605Z,67.4
2022-10-22T01:11:43.230Z,67.4
2022-10-22T01:13:27.010Z,67.5
2022-10-22T01:15:10.581Z,67.4
2022-10-22T01:16:54.453Z,67.4
2022-10-22T01:18:37.968Z,67.4
2022-10-22T01:20:21.798Z,67.4
2022-10-22T01:22:05.588Z,67.5
2022-10-22T01:23:49.221Z,67.4
2022-10-22T01:25:32.946Z,67.4
2022-10-22T01:27:16.499Z,67.5
2022-10-22T01:29:00.190Z,67.5
2022-10-22T01:30:44.069Z,67.4
2022-10-22T01:32:27.637Z,67.5
2022-10-22T01:34:11.313Z,67.4
2022-10-22T01:35:55.142Z,67.5
2022-10-22T01:37:38.824Z,67.4
2022-10-22T01:39:22.530Z,67.4
2022-10-22T01:41:06.086Z,67.4
2022-10-22T01:42:49.973Z,67.4
2022-10-22T01:44:33.677Z,67.4
2022-10-22T01:46:17.346Z,67.4
2022-10-22T01:48:01.046Z,67.4
2022-10-22T01:49:44.680Z,67.4
2022-10-22T01:51:28.297Z,67.4
2022-10-22T01:53:12.039Z,67.4
2022-10-22T01:54:55.717Z,67.4
2022-10-22T01:56:39.401Z,67.5
2022-10-22T01:58:23.081Z,67.5
2022-10-22T02:00:06.957Z,67.5
2022-10-22T02:01:50.692Z,67.5
2022-10-22T02:03:34.385Z,67.4
2022-10-22T02:05:18.091Z,67.4
2022-10-22T02:07:01.764Z,67.4
2022-10-22T02:08:45.458Z,67.4
2022-10-22T02:10:29.008Z,67.4
2022-10-22T02:12:12.771Z,67.4
2022-10-22T02:13:56.595Z,67.4
2022-10-22T02:15:40.286Z,67.4
2022-10-22T02:17:23.933Z,67.4
2022-10-22T02:19:07.675Z,67.4
2022-10-22T02:20:51.346Z,67.5
2022-10-22T02:22:35.074Z,67.5
2022-10-22T02:24:18.782Z,67.5
2022-10-22T02:26:02.470Z,67.4
2022-10-22T02:27:46.164Z,67.4
2022-10-22T02:29:29.849Z,67.4
2022-10-22T02:31:13.542Z,67.4
2022-10-22T02:32:57.298Z,67.5
2022-10-22T02:34:40.857Z,67.5
2022-10-22T02:36:24.629Z,67.4
2022-10-22T02:38:08.246Z,67.4
2022-10-22T02:39:51.958Z,67.5
2022-10-22T02:41:35.700Z,67.4
2022-10-22T02:43:19.458Z,67.5
2022-10-22T02:45:03.147Z,67.4
2022-10-22T02:46:46.783Z,67.5
2022-10-22T02:48:30.525Z,67.5
2022-10-22T02:50:14.164Z,67.5
2022-10-22T02:51:57.908Z,67.5
2022-10-22T02:53:41.722Z,67.5
2022-10-22T02:55:25.275Z,67.5
2022-10-22T02:57:08.954Z,67.5
2022-10-22T02:58:52.664Z,67.4
2022-10-22T03:00:36.503Z,67.4
2022-10-22T03:02:20.254Z,67.5
2022-10-22T03:04:03.792Z,67.5
2022-10-22T03:05:47.599Z,67.5
2022-10-22T03:07:31.299Z,67.5
2022-10-22T03:09:15.026Z,67.5
2022-10-22T03:10:58.595Z,67.5
2022-10-22T03:12:42.316Z,67.5
2022-10-22T03:14:26.009Z,67.5
2022-10-22T03:16:09.798Z,67.5
2022-10-22T03:17:53.559Z,67.5
2022-10-22T03:19:37.069Z,67.5
2022-10-22T03:21:20.886Z,67.5
2022-10-22T03:23:04.635Z,67.5
2022-10-22T03:24:48.271Z,67.5
2022-10-22T03:26:32.002Z,67.5
2022-10-22T03:28:15.651Z,67.5
2022-10-22T03:29:59.317Z,67.5
2022-10-22T03:31:43.051Z,67.5
2022-10-22T03:33:26.725Z,67.5
2022-10-22T03:35:10.406Z,67.5
2022-10-22T03:36:54.196Z,67.5
2022-10-22T03:38:37.776Z,67.5
2022-10-22T03:40:21.483Z,67.5
2022-10-22T03:42:05.249Z,67.5
2022-10-22T03:43:48.932Z,67.5
2022-10-22T03:45:32.616Z,67.5
2022-10-22T03:47:16.298Z,67.5
2022-10-22T03:49:00.007Z,67.5
2022-10-22T03:50:43.694Z,67.5
2022-10-22T03:52:27.395Z,67.5
2022-10-22T03:54:11.142Z,67.5
2022-10-22T03:55:54.875Z,67.4
2022-10-22T03:57:38.506Z,67.4
2022-10-22T03:59:22.198Z,67.5
2022-10-22T04:01:05.891Z,67.5
2022-10-22T04:02:49.751Z,67.5
2022-10-22T04:04:33.342Z,67.5
2022-10-22T04:06:17.019Z,67.5
2022-10-22T04:08:00.710Z,67.5
2022-10-22T04:09:44.401Z,67.5
2022-10-22T04:11:28.109Z,67.5
2022-10-22T04:13:11.786Z,67.5
2022-10-22T04:14:55.555Z,67.5
2022-10-22T04:16:39.230Z,67.5
2022-10-22T04:18:22.907Z,67.5
2022-10-22T04:20:06.597Z,67.5
2022-10-22T04:21:50.294Z,67.5
2022-10-22T04:23:34.008Z,67.5
2022-10-22T04:25:17.814Z,67.5
2022-10-22T04:27:01.436Z,67.5
2022-10-22T04:28:45.116Z,67.5
2022-10-22T04:30:28.796Z,67.5
2022-10-22T04:32:12.515Z,67.5
2022-10-22T04:33:56.200Z,67.4
2022-10-22T04:35:39.893Z,67.4
2022-10-22T04:37:23.649Z,67.4
2022-10-22T04:39:07.323Z,67.5
2022-10-22T04:40:51.010Z,67.5
2022-10-22T04:42:34.713Z,67.5
2022-10-22T04:44:18.403Z,67.5
2022-10-22T04:46:02.166Z,67.5
2022-10-22T04:47:45.844Z,67.5
2022-10-22T04:49:29.538Z,67.5
2022-10-22T04:51:13.211Z,67.5
2022-10-22T04:52:56.933Z,67.5
2022-10-22T04:54:40.609Z,67.5
2022-10-22T04:56:24.366Z,67.5
2022-10-22T04:58:08.050Z,67.5
2022-10-22T04:59:51.730Z,67.5
2022-10-22T05:01:35.410Z,67.5
2022-10-22T05:03:19.146Z,67.5
2022-10-22T05:05:02.828Z,67.5
2022-10-22T05:06:46.604Z,67.5
2022-10-22T05:08:30.261Z,67.5
2022-10-22T05:10:13.932Z,67.5
2022-10-22T05:11:57.615Z,67.5
2022-10-22T05:13:41.326Z,67.5
2022-10-22T05:15:25.026Z,67.5
2022-10-22T05:17:08.887Z,67.5
2022-10-22T05:18:52.458Z,67.5
2022-10-22T05:20:36.138Z,67.5
2022-10-22T05:22:19.836Z,67.5
2022-10-22T05:24:03.555Z,67.5
2022-10-22T05:25:47.253Z,67.5
2022-10-22T05:27:30.994Z,67.5
2022-10-22T05:29:14.664Z,67.5
2022-10-22T05:30:58.354Z,67.5
2022-10-22T05:32:42.050Z,67.5
2022-10-22T05:34:25.755Z,67.5
2022-10-22T05:36:09.503Z,67.5
2022-10-22T05:37:53.188Z,67.5
2022-10-22T05:39:36.866Z,67.5
2022-10-22T05:41:20.573Z,67.6
2022-10-22T05:43:04.270Z,67.6
2022-10-22T05:44:47.957Z,67.6
2022-10-22T05:46:31.713Z,67.6
2022-10-22T05:48:15.399Z,67.5
2022-10-22T05:49:59.078Z,67.5
2022-10-22T05:51:42.777Z,67.6
2022-10-22T05:53:26.472Z,67.6
2022-10-22T05:55:10.238Z,67.6
2022-10-22T05:56:53.914Z,67.6
2022-10-22T05:58:37.611Z,67.6
2022-10-22T06:00:21.312Z,67.6
2022-10-22T06:02:04.986Z,67.6
2022-10-22T06:03:48.679Z,67.6
2022-10-22T06:05:32.367Z,67.6
2022-10-22T06:07:16.126Z,67.6
2022-10-22T06:08:59.818Z,67.6
2022-10-22T06:10:43.487Z,67.6
2022-10-22T06:12:27.266Z,67.6
2022-10-22T06:14:10.874Z,67.6
2022-10-22T06:15:54.569Z,67.6
2022-10-22T06:17:38.323Z,67.6
2022-10-22T06:19:22.009Z,67.6
2022-10-22T06:21:05.715Z,67.6
2022-10-22T06:22:49.381Z,67.6
2022-10-22T06:24:33.076Z,67.6
2022-10-22T06:26:16.780Z,67.6
2022-10-22T06:28:00.469Z,67.6
2022-10-22T06:29:44.234Z,67.6
2022-10-22T06:31:27.896Z,67.6
2022-10-22T06:33:11.599Z,67.6
2022-10-22T06:34:55.294Z,67.6
2022-10-22T06:36:38.999Z,67.6
2022-10-22T06:38:22.735Z,67.6
2022-10-22T06:40:06.500Z,67.5
2022-10-22T06:41:50.099Z,67.5
2022-10-22T06:43:33.949Z,67.5
2022-10-22T06:45:17.612Z,67.5
2022-10-22T06:47:01.366Z,67.5
2022-10-22T06:48:45.105Z,67.5
2022-10-22T06:50:28.622Z,67.5
2022-10-22T06:52:12.438Z,67.5
2022-10-22T06:53:56.166Z,67.5
2022-10-22T06:55:39.823Z,67.4
2022-10-22T06:57:23.656Z,67.4
2022-10-22T06:59:07.146Z,67.5
2022-10-22T07:00:50.911Z,67.4
2022-10-22T07:02:34.665Z,67.4
2022-10-22T07:04:18.293Z,67.4
2022-10-22T07:06:01.957Z,67.4
2022-10-22T07:07:45.815Z,67.4
2022-10-22T07:09:29.509Z,67.4
2022-10-22T07:11:13.155Z,67.4
2022-10-22T07:12:56.861Z,67.4
2022-10-22T07:14:40.578Z,67.4
2022-10-22T07:16:24.246Z,67.4
2022-10-22T07:18:07.919Z,67.4
2022-10-22T07:19:51.610Z,67.3
2022-10-22T07:21:35.393Z,67.4
2022-10-22T07:23:19.068Z,67.3
2022-10-22T07:25:02.771Z,67.3
2022-10-22T07:26:46.447Z,67.3
2022-10-22T07:28:30.217Z,67.3
2022-10-22T07:30:13.908Z,67.3
2022-10-22T07:31:57.443Z,67.3
2022-10-22T07:33:41.280Z,67.3
2022-10-22T07:35:24.981Z,67.3
2022-10-22T07:37:08.689Z,67.3
2022-10-22T07:38:52.434Z,67.3
2022-10-22T07:40:36.123Z,67.3
2022-10-22T07:42:19.752Z,67.1
2022-10-22T07:44:03.478Z,66.9
2022-10-22T07:45:47.199Z,66.8
2022-10-22T07:47:30.828Z,66.7
2022-10-22T07:49:14.583Z,66.6
2022-10-22T07:50:58.300Z,66.4
2022-10-22T07:52:41.943Z,66.3
2022-10-22T07:54:25.662Z,66.4
2022-10-22T07:56:09.403Z,66.1
2022-10-22T07:57:53.176Z,65.8
2022-10-22T07:59:36.852Z,65.7
2022-10-22T08:01:20.377Z,65.6
2022-10-22T08:03:04.118Z,65.5
2022-10-22T08:04:47.824Z,65.5
2022-10-22T08:06:31.501Z,65.6
2022-10-22T08:08:15.270Z,65.7
2022-10-22T08:09:59.018Z,65.8
2022-10-22T08:11:42.731Z,65.8
2022-10-22T08:13:26.313Z,65.8
2022-10-22T08:15:09.988Z,65.8
2022-10-22T08:16:53.784Z,66
2022-10-22T08:18:37.532Z,66.5
2022-10-22T08:20:21.215Z,66.4
2022-10-22T08:22:04.819Z,66.5
2022-10-22T08:23:48.516Z,66.8
2022-10-22T08:25:32.275Z,66.8
2022-10-22T08:27:16.023Z,66.8
2022-10-22T08:28:59.713Z,66.7
2022-10-22T08:30:43.444Z,66.8
2022-10-22T08:32:27.123Z,66.8
2022-10-22T08:34:10.814Z,66.7
2022-10-22T08:35:54.472Z,66.7
2022-10-22T08:37:38.213Z,66.9
2022-10-22T08:39:21.923Z,66.8
2022-10-22T08:41:05.589Z,66.9
2022-10-22T08:42:49.294Z,66.8
2022-10-22T08:44:32.954Z,66.7
2022-10-22T08:46:16.638Z,66.6
2022-10-22T08:48:00.301Z,66.7
2022-10-22T08:49:44.133Z,66.5
2022-10-22T08:51:27.722Z,66.4
2022-10-22T08:53:11.510Z,66.4
2022-10-22T08:54:55.247Z,66.4
2022-10-22T08:56:38.893Z,66.1
2022-10-22T08:58:22.677Z,66.1
2022-10-22T09:00:06.364Z,66.2
2022-10-22T09:01:49.933Z,66.1
2022-10-22T09:03:33.709Z,66
2022-10-22T09:05:17.450Z,66
2022-10-22T09:07:01.053Z,66.1
2022-10-22T09:08:44.896Z,66.1
2022-10-22T09:10:28.475Z,66
2022-10-22T09:12:12.225Z,65.9
2022-10-22T09:13:55.941Z,65.8
2022-10-22T09:15:39.671Z,65.8
2022-10-22T09:17:23.324Z,65.6
2022-10-22T09:19:07.090Z,65.6
2022-10-22T09:20:50.763Z,65.5
2022-10-22T09:22:34.513Z,65.5
2022-10-22T09:24:18.171Z,65.5
2022-10-22T09:26:01.744Z,65.5
2022-10-22T09:27:45.636Z,65.5
2022-10-22T09:29:29.175Z,65.5
2022-10-22T09:31:12.873Z,65.5
2022-10-22T09:32:56.708Z,65.3
2022-10-22T09:34:40.348Z,65.3
2022-10-22T09:36:24.078Z,65.3
2022-10-22T09:38:07.865Z,65.2
2022-10-22T09:39:51.531Z,65.1
2022-10-22T09:41:35.193Z,65.1
2022-10-22T09:43:18.753Z,65.2
2022-10-22T09:45:02.595Z,65.2
2022-10-22T09:46:46.248Z,65.2
2022-10-22T09:48:30.042Z,65.2
2022-10-22T09:50:13.608Z,65.1
2022-10-22T09:51:57.397Z,65.1
2022-10-22T09:53:41.090Z,65
2022-10-22T09:55:24.774Z,65
2022-10-22T09:57:08.537Z,65
2022-10-22T09:58:52.259Z,65
2022-10-22T10:00:35.941Z,65
2022-10-22T10:02:19.556Z,64.9
2022-10-22T10:04:03.176Z,64.9
2022-10-22T10:05:47.022Z,64.8
2022-10-22T10:07:30.634Z,64.7
2022-10-22T10:09:14.313Z,64.7
2022-10-22T10:10:58.146Z,64.6
2022-10-22T10:12:41.834Z,64.6
2022-10-22T10:14:25.544Z,64.6
2022-10-22T10:16:09.328Z,64.6
2022-10-22T10:17:52.992Z,64.7
2022-10-22T10:19:36.694Z,64.7
2022-10-22T10:21:20.361Z,64.5
2022-10-22T10:23:04.071Z,64.6
2022-10-22T10:24:47.601Z,64.6
2022-10-22T10:26:31.522Z,64.6
2022-10-22T10:28:15.048Z,64.5
2022-10-22T10:29:58.867Z,64.5
2022-10-22T10:31:42.542Z,64.8
2022-10-22T10:33:26.257Z,64.9
2022-10-22T10:35:09.970Z,64.8
2022-10-22T10:36:53.618Z,64.8
2022-10-22T10:38:37.267Z,64.8
2022-10-22T10:40:20.951Z,64.8
2022-10-22T10:42:04.760Z,64.8
2022-10-22T10:43:48.381Z,64.8
2022-10-22T10:45:32.120Z,64.7
2022-10-22T10:47:15.796Z,64.7
2022-10-22T10:48:59.469Z,64.7
2022-10-22T10:50:43.164Z,64.7
2022-10-22T10:52:26.888Z,64.7
2022-10-22T10:54:10.625Z,64.7
2022-10-22T10:55:54.334Z,64.6
2022-10-22T10:57:37.982Z,64.5
2022-10-22T10:59:21.680Z,64.5
2022-10-22T11:01:05.440Z,64.5
2022-10-22T11:02:49.152Z,64.5
2022-10-22T11:04:32.854Z,64.4
2022-10-22T11:06:16.543Z,64.3
2022-10-22T11:08:00.196Z,64.4
2022-10-22T11:09:43.887Z,64.7
2022-10-22T11:11:27.595Z,64.7
2022-10-22T11:13:11.283Z,64.5
2022-10-22T11:14:55.028Z,64.3
2022-10-22T11:16:38.709Z,64.2
2022-10-22T11:18:22.394Z,64.1
2022-10-22T11:20:06.126Z,64
2022-10-22T11:21:49.840Z,63.9
2022-10-22T11:23:33.553Z,63.8
2022-10-22T11:25:17.233Z,63.8
2022-10-22T11:27:00.913Z,63.8
2022-10-22T11:28:44.610Z,63.9
2022-10-22T11:30:28.299Z,64.1
2022-10-22T11:32:12.020Z,64.3
2022-10-22T11:33:55.768Z,64.4
2022-10-22T11:35:39.435Z,64.4
2022-10-22T11:37:23.133Z,64.5
2022-10-22T11:39:06.831Z,64.8
2022-10-22T11:40:50.520Z,65
2022-10-22T11:42:34.275Z,64.9
2022-10-22T11:44:17.967Z,65
2022-10-22T11:46:01.656Z,65
2022-10-22T11:47:45.331Z,65
2022-10-22T11:49:29.042Z,65.1
2022-10-22T11:51:12.738Z,65.2
2022-10-22T11:52:56.491Z,65.2
2022-10-22T11:54:40.171Z,65.3
2022-10-22T11:56:23.861Z,65.5
2022-10-22T11:58:07.556Z,65.6
2022-10-22T11:59:51.264Z,65.7
2022-10-22T12:01:35.007Z,65.8
2022-10-22T12:03:18.697Z,66
2022-10-22T12:05:02.404Z,66
2022-10-22T12:06:46.078Z,65.9
2022-10-22T12:08:29.776Z,66
2022-10-22T12:10:13.467Z,65.9
2022-10-22T12:11:57.216Z,65.9
2022-10-22T12:13:40.899Z,65.9
2022-10-22T12:15:24.588Z,65.9
2022-10-22T12:17:08.279Z,65.9
2022-10-22T12:18:51.983Z,66
2022-10-22T12:20:35.839Z,66
2022-10-22T12:22:19.429Z,66
2022-10-22T12:24:03.102Z,66
2022-10-22T12:25:46.798Z,66.1
2022-10-22T12:27:30.500Z,66.1
2022-10-22T12:29:14.260Z,66.1
2022-10-22T12:30:57.950Z,66.1
2022-10-22T12:32:41.638Z,66.1
2022-10-22T12:34:25.327Z,66.1
2022-10-22T12:36:09.013Z,66.1
2022-10-22T12:37:52.700Z,66.1
2022-10-22T12:39:36.469Z,66.1
2022-10-22T12:41:20.149Z,66.2
2022-10-22T12:43:03.835Z,66.2
2022-10-22T12:44:47.517Z,66.1
2022-10-22T12:46:31.230Z,66.2
2022-10-22T12:48:14.934Z,66.2
2022-10-22T12:49:58.720Z,66.1
2022-10-22T12:51:42.353Z,66.2
2022-10-22T12:53:26.047Z,66.1
2022-10-22T12:55:09.763Z,66.1
2022-10-22T12:56:53.435Z,66.2
2022-10-22T12:58:37.217Z,66.3
2022-10-22T13:00:20.875Z,66.4
2022-10-22T13:02:04.565Z,66.4
2022-10-22T13:03:48.278Z,66.6
2022-10-22T13:05:31.962Z,66.7
2022-10-22T13:07:15.723Z,66.7
2022-10-22T13:08:59.408Z,66.8
2022-10-22T13:10:43.080Z,66.9
2022-10-22T13:12:26.765Z,66.9
2022-10-22T13:14:10.460Z,66.8
2022-10-22T13:15:54.167Z,66.8
2022-10-22T13:17:37.857Z,66.7
2022-10-22T13:19:21.605Z,66.7
2022-10-22T13:21:05.401Z,66.7
2022-10-22T13:22:48.970Z,66.6
2022-10-22T13:24:32.697Z,66.6
2022-10-22T13:26:16.381Z,66.5
2022-10-22T13:28:00.142Z,66.6
2022-10-22T13:29:43.814Z,66.7
2022-10-22T13:31:27.493Z,66.6
2022-10-22T13:33:11.181Z,66.6
2022-10-22T13:34:54.887Z,66.6
2022-10-22T13:36:38.584Z,66.6
2022-10-22T13:38:22.271Z,66.6
2022-10-22T13:40:06.021Z,66.6
2022-10-22T13:41:49.704Z,66.6
2022-10-22T13:43:33.392Z,66.6
2022-10-22T13:45:17.121Z,66.5
2022-10-22T13:47:00.867Z,66.6
2022-10-22T13:48:44.542Z,66.6
2022-10-22T13:50:28.221Z,66.6
2022-10-22T13:52:11.924Z,66.6
2022-10-22T13:53:55.617Z,66.6
2022-10-22T13:55:39.306Z,66.6
2022-10-22T13:57:23.062Z,66.7
2022-10-22T13:59:06.747Z,66.8
2022-10-22T14:00:50.424Z,66.7
2022-10-22T14:02:34.108Z,66.9
2022-10-22T14:04:17.826Z,67
2022-10-22T14:06:01.516Z,66.9
2022-10-22T14:07:45.272Z,66.9
2022-10-22T14:09:28.962Z,66.8
2022-10-22T14:11:12.643Z,66.8
2022-10-22T14:12:56.342Z,66.7
2022-10-22T14:14:40.039Z,66.7
2022-10-22T14:16:23.808Z,66.7
2022-10-22T14:18:07.476Z,66.7
2022-10-22T14:19:51.159Z,66.7
2022-10-22T14:21:34.879Z,66.7
2022-10-22T14:23:18.544Z,66.7
2022-10-22T14:25:02.242Z,66.8
2022-10-22T14:26:46.033Z,66.8
2022-10-22T14:28:29.700Z,66.8
2022-10-22T14:30:13.410Z,66.8
2022-10-22T14:31:57.061Z,66.8
2022-10-22T14:33:40.787Z,66.9
2022-10-22T14:35:24.446Z,66.8
2022-10-22T14:37:08.208Z,66.8
2022-10-22T14:38:51.909Z,66.9
2022-10-22T14:40:35.564Z,67
2022-10-22T14:42:19.535Z,67
2022-10-22T14:44:02.989Z,66.9
2022-10-22T14:45:46.667Z,67
2022-10-22T14:47:30.448Z,67.1
2022-10-22T14:49:14.100Z,67.1
2022-10-22T14:50:57.771Z,67.1
2022-10-22T14:52:41.526Z,67.2
2022-10-22T14:54:25.231Z,67.3
2022-10-22T14:56:08.938Z,67.3
2022-10-22T14:57:52.653Z,67.2
2022-10-22T14:59:36.312Z,67.2
2022-10-22T15:01:20.056Z,67.2
2022-10-22T15:03:03.703Z,67.3
2022-10-22T15:04:47.436Z,67.3
2022-10-22T15:06:31.150Z,67.3
2022-10-22T15:08:14.831Z,67.4
2022-10-22T15:09:58.546Z,67.5
2022-10-22T15:11:42.232Z,67.5
2022-10-22T15:13:25.960Z,67.5
2022-10-22T15:15:09.665Z,67.6
2022-10-22T15:16:53.417Z,67.6
2022-10-22T15:18:37.036Z,67.7
2022-10-22T15:20:20.717Z,67.8
2022-10-22T15:23:48.228Z,67.8
2022-10-22T15:25:31.877Z,67.8
2022-10-22T15:27:15.592Z,67.9
2022-10-22T15:28:59.263Z,67.9
2022-10-22T15:30:43.038Z,67.9
2022-10-22T15:32:26.669Z,68
2022-10-22T15:34:10.340Z,68
2022-10-22T15:35:54.077Z,68.1
2022-10-22T15:37:37.756Z,68.1
2022-10-22T15:39:21.492Z,68.1
2022-10-22T15:41:05.220Z,68.2
2022-10-22T15:42:48.868Z,68.3
2022-10-22T15:44:32.535Z,68.3
2022-10-22T15:46:16.382Z,68.3
2022-10-22T15:47:59.975Z,68.3
2022-10-22T15:49:43.653Z,68.3
2022-10-22T15:51:27.504Z,68.4
2022-10-22T15:53:11.047Z,68.5
2022-10-22T15:54:54.942Z,68.6
2022-10-22T15:56:38.533Z,68.7
2022-10-22T15:58:22.235Z,68.7
2022-10-22T16:00:05.869Z,68.8
2022-10-22T16:01:49.560Z,68.8
2022-10-22T16:03:33.332Z,68.6
2022-10-22T16:05:17.047Z,68.7
2022-10-22T16:07:00.777Z,68.7
2022-10-22T16:08:44.368Z,68.8
2022-10-22T16:10:28.087Z,68.8
2022-10-22T16:12:11.804Z,68.8
2022-10-22T16:13:55.597Z,68.8
2022-10-22T16:15:39.239Z,68.8
2022-10-22T16:17:22.899Z,68.9
2022-10-22T16:19:06.598Z,68.8
2022-10-22T16:20:50.378Z,68.8
2022-10-22T16:22:34.029Z,69
2022-10-22T16:24:17.735Z,69
2022-10-22T16:26:01.418Z,69.1
2022-10-22T16:27:45.124Z,69.1
2022-10-22T16:31:12.497Z,69.1
2022-10-22T16:32:56.285Z,69.1
2022-10-22T16:34:39.959Z,69
2022-10-22T16:36:23.667Z,69.1
2022-10-22T16:38:07.325Z,69
2022-10-22T16:39:51.098Z,69
2022-10-22T16:41:34.699Z,68.9
2022-10-22T16:43:18.501Z,69
2022-10-22T16:45:02.176Z,69
2022-10-22T16:46:45.914Z,68.9
2022-10-22T16:48:29.542Z,68.9
2022-10-22T16:50:13.233Z,68.9
2022-10-22T16:51:56.959Z,68.9
2022-10-22T16:53:40.662Z,68.8
2022-10-22T16:55:24.351Z,68.8
2022-10-22T16:57:08.029Z,68.8
2022-10-22T16:58:51.772Z,68.8
2022-10-22T17:00:35.412Z,68.8
2022-10-22T17:02:19.125Z,68.8
2022-10-22T17:04:02.931Z,68.8
2022-10-22T17:05:46.577Z,68.8
2022-10-22T17:07:30.276Z,68.7
2022-10-22T17:09:13.980Z,68.7
2022-10-22T17:10:57.660Z,68.8
2022-10-22T17:12:41.325Z,68.7
2022-10-22T17:14:25.087Z,68.7
2022-10-22T17:16:08.759Z,68.7
2022-10-22T17:17:52.450Z,68.8
2022-10-22T17:19:36.150Z,68.8
2022-10-22T17:21:19.859Z,68.7
2022-10-22T17:23:03.671Z,68.7
2022-10-22T17:24:47.279Z,68.6
2022-10-22T17:26:30.994Z,68.6
2022-10-22T17:28:14.674Z,68.6
2022-10-22T17:29:58.360Z,68.6
2022-10-22T17:31:42.121Z,68.6
2022-10-22T17:35:09.498Z,68.5
2022-10-22T17:36:53.172Z,68.5
2022-10-22T17:38:36.885Z,68.4
2022-10-22T17:40:20.567Z,68.4
2022-10-22T17:42:04.376Z,68.4
2022-10-22T17:43:48.013Z,68.4
2022-10-22T17:45:31.691Z,68.5
2022-10-22T17:47:15.466Z,68.4
2022-10-22T17:48:59.105Z,68.5
2022-10-22T17:50:42.791Z,68.5
2022-10-22T17:52:26.540Z,68.5
2022-10-22T17:54:10.248Z,68.4
2022-10-22T17:55:53.900Z,68.3
2022-10-22T17:57:37.584Z,68.2
2022-10-22T17:59:21.307Z,68.3
2022-10-22T18:01:04.989Z,68.3
2022-10-22T18:02:48.737Z,68.3
2022-10-22T18:04:32.423Z,68.2
2022-10-22T18:06:16.137Z,68.2
2022-10-22T18:07:59.792Z,68.2
2022-10-22T18:09:43.536Z,68.2
2022-10-22T18:11:27.223Z,68.2
2022-10-22T18:13:10.950Z,68.2
2022-10-22T18:14:54.631Z,68.2
2022-10-22T18:16:38.309Z,68.2
2022-10-22T18:18:22.002Z,68.2
2022-10-22T18:20:05.689Z,68.2
2022-10-22T18:21:49.398Z,68.2
2022-10-22T18:23:33.103Z,68.3
2022-10-22T18:25:16.854Z,68.2
2022-10-22T18:27:00.514Z,68.2
2022-10-22T18:28:44.279Z,68.1
2022-10-22T18:30:27.903Z,68.2
2022-10-22T18:32:11.622Z,68.2
2022-10-22T18:33:55.356Z,68.2
2022-10-22T18:35:39.044Z,68.1
2022-10-22T18:37:22.724Z,68.1
2022-10-22T18:39:06.453Z,68.2
2022-10-22T18:40:50.121Z,68.1
2022-10-22T18:42:33.869Z,68.1
2022-10-22T18:44:17.580Z,68.1
2022-10-22T18:46:01.239Z,68.1
2022-10-22T18:47:44.918Z,68.1
2022-10-22T18:49:28.608Z,68.2
2022-10-22T18:51:12.312Z,68.2
2022-10-22T18:52:56.033Z,68.2
2022-10-22T18:54:39.810Z,68.1
2022-10-22T18:56:23.446Z,68.2
2022-10-22T18:58:07.129Z,68.1
2022-10-22T18:59:50.827Z,68.1
2022-10-22T19:01:34.529Z,68.2
2022-10-22T19:03:18.217Z,68.1
2022-10-22T19:05:02.114Z,68.1
2022-10-22T19:06:45.662Z,68.1
2022-10-22T19:08:29.333Z,68.2
2022-10-22T19:10:13.012Z,68.2
2022-10-22T19:11:56.773Z,68.1
2022-10-22T19:13:40.490Z,68.2
2022-10-22T19:15:24.173Z,68.2
2022-10-22T19:17:07.878Z,68.1
2022-10-22T19:18:51.557Z,68.1
2022-10-22T19:20:35.229Z,68.1
2022-10-22T19:22:18.938Z,68.1
2022-10-22T19:24:02.627Z,68
2022-10-22T19:25:46.382Z,68.1
2022-10-22T19:27:30.081Z,68.1
2022-10-22T19:29:13.782Z,68.1
2022-10-22T19:30:57.425Z,68.1
2022-10-22T19:32:41.125Z,68.1
2022-10-22T19:34:24.908Z,68.2
2022-10-22T19:36:08.595Z,68.1
2022-10-22T19:37:52.262Z,68.1
2022-10-22T19:39:35.944Z,68.1
2022-10-22T19:41:19.653Z,68.1
2022-10-22T19:43:03.358Z,68.1
2022-10-22T19:44:47.033Z,68.1
2022-10-22T19:46:30.790Z,68
2022-10-22T19:48:14.470Z,68.1
2022-10-22T19:49:58.254Z,68.3
2022-10-22T19:51:41.997Z,68.2
2022-10-22T19:53:25.683Z,68.3
2022-10-22T19:55:09.412Z,68.2
2022-10-22T19:56:53.135Z,68.1
2022-10-22T19:58:36.786Z,68.1
2022-10-22T20:00:20.513Z,68.1
2022-10-22T20:02:04.208Z,68.1
2022-10-22T20:03:47.891Z,68.1
2022-10-22T20:05:31.607Z,68.2
2022-10-22T20:07:15.326Z,68.3
2022-10-22T20:08:59.016Z,68.3
2022-10-22T20:10:42.645Z,68.2
2022-10-22T20:12:26.320Z,68.3
2022-10-22T20:14:10.067Z,68.2
2022-10-22T20:15:53.847Z,68.2
2022-10-22T20:17:37.454Z,68.2
2022-10-22T20:19:21.218Z,68.1
2022-10-22T20:21:04.822Z,68.1
2022-10-22T20:22:48.585Z,68.1
2022-10-22T20:24:32.289Z,68.4
2022-10-22T20:26:15.955Z,68.3
2022-10-22T20:27:59.643Z,68.3
2022-10-22T20:29:43.367Z,68.2
2022-10-22T20:31:27.104Z,68.1
2022-10-22T20:33:10.729Z,68.1
2022-10-22T20:34:54.399Z,68.1
2022-10-22T20:36:38.072Z,68.1
2022-10-22T20:38:21.839Z,68.1
2022-10-22T20:40:05.493Z,68.2
2022-10-22T20:41:49.208Z,68.2
2022-10-22T20:43:32.874Z,68.3
2022-10-22T20:45:16.615Z,68.4
2022-10-22T20:47:00.248Z,68.6
2022-10-22T20:48:44.147Z,68.5
2022-10-22T20:50:27.750Z,68.8
2022-10-22T20:52:11.471Z,69
2022-10-22T20:53:55.165Z,69.2
2022-10-22T20:55:38.856Z,69.3
2022-10-22T20:57:22.514Z,69.4
2022-10-22T20:59:06.217Z,69.4
2022-10-22T21:00:50.013Z,69.4
2022-10-22T21:02:33.606Z,69.5
2022-10-22T21:04:17.318Z,69.5
2022-10-22T21:06:01.013Z,69.5
2022-10-22T21:07:44.789Z,69.4
2022-10-22T21:09:28.404Z,69.5
2022-10-22T21:11:12.218Z,69.4
2022-10-22T21:12:55.843Z,69.5
2022-10-22T21:14:39.553Z,69.3
2022-10-22T21:16:23.280Z,69.6
2022-10-22T21:18:06.979Z,69.5
2022-10-22T21:19:50.637Z,69.5
2022-10-22T21:21:34.318Z,69.5
2022-10-22T21:23:18.055Z,69.5
2022-10-22T21:25:01.737Z,69.5
2022-10-22T21:26:45.425Z,69.5
2022-10-22T21:28:29.098Z,69.5
2022-10-22T21:30:12.861Z,69.4
2022-10-22T21:33:40.229Z,69.6
2022-10-22T21:35:23.957Z,69.6
2022-10-22T21:37:07.608Z,69.6
2022-10-22T21:38:51.395Z,69.5
2022-10-22T21:40:35.107Z,69.5
2022-10-22T21:42:18.725Z,69.5
2022-10-22T21:44:02.454Z,69.5
2022-10-22T21:45:46.130Z,69.5
2022-10-22T21:47:29.872Z,69.5
2022-10-22T21:49:13.631Z,69.6
2022-10-22T21:50:57.270Z,69.6
2022-10-22T21:52:40.944Z,69.7
2022-10-22T21:54:24.736Z,69.7
2022-10-22T21:56:08.338Z,69.6
2022-10-22T21:57:52.191Z,69.6
2022-10-22T21:59:35.774Z,69.6
2022-10-22T22:01:19.487Z,69.7
2022-10-22T22:03:03.174Z,69.6
2022-10-22T22:04:46.890Z,69.6
2022-10-22T22:06:30.630Z,69.5
2022-10-22T22:08:14.324Z,69.6
2022-10-22T22:09:57.990Z,69.6
2022-10-22T22:11:41.695Z,69.6
2022-10-22T22:13:25.373Z,69.6
2022-10-22T22:15:09.071Z,69.7
2022-10-22T22:16:52.920Z,69.6
2022-10-22T22:18:36.503Z,69.7
2022-10-22T22:20:20.183Z,69.7
2022-10-22T22:22:04.033Z,69.8
2022-10-22T22:23:47.621Z,69.7
2022-10-22T22:25:31.344Z,69.8
2022-10-22T22:27:15.158Z,69.5
2022-10-22T22:28:58.786Z,69.4
2022-10-22T22:32:26.099Z,69.6
2022-10-22T22:34:09.796Z,69.7
2022-10-22T22:35:53.506Z,69.7
2022-10-22T22:37:37.240Z,69.7
2022-10-22T22:39:20.921Z,69.7
2022-10-22T22:41:04.604Z,69.7
2022-10-22T22:42:48.330Z,69.7
2022-10-22T22:44:32.003Z,69.7
2022-10-22T22:46:15.756Z,69.7
2022-10-22T22:47:59.434Z,69.8
2022-10-22T22:49:43.117Z,69.7
2022-10-22T22:51:26.827Z,69.7
2022-10-22T22:53:10.508Z,69.7
2022-10-22T22:54:54.228Z,69.7
2022-10-22T22:56:37.963Z,69.7
2022-10-22T22:58:21.640Z,69.6
2022-10-22T23:00:05.324Z,69.6
2022-10-22T23:01:49.017Z,69.7
2022-10-22T23:03:32.716Z,69.7
2022-10-22T23:05:16.466Z,69.6
2022-10-22T23:07:00.177Z,69.2
2022-10-22T23:08:43.847Z,69.2
2022-10-22T23:10:27.534Z,69.2
2022-10-22T23:12:11.233Z,69.1
2022-10-22T23:13:54.922Z,69